sensor_id;sensor_type;location;lat;lon;timestamp;pressure;altitude;pressure_sealevel;temperature;humidity
63190;BME280;49286;44.460;26.114;2023-04-22T00:00:13;100229.94;;;10.35;100.00
63190;BME280;49286;44.460;26.114;2023-04-22T00:02:39;100231.66;;;10.13;100.00
63190;BME280;49286;44.460;26.114;2023-04-22T00:05:06;100134.75;;;9.44;100.00
63190;BME280;49286;44.460;26.114;2023-04-22T00:07:31;100245.66;;;10.19;100.00
63190;BME280;49286;44.460;26.114;2023-04-22T00:09:57;100250.00;;;10.41;100.00
63190;BME280;49286;44.460;26.114;2023-04-22T00:12:24;100229.94;;;10.32;100.00
63190;BME280;49286;44.460;26.114;2023-04-22T00:14:50;100126.88;;;9.70;100.00
63190;BME280;49286;44.460;26.114;2023-04-22T00:17:15;100205.47;;;10.17;100.00
63190;BME280;49286;44.460;26.114;2023-04-22T00:19:41;100106.81;;;9.43;100.00
63190;BME280;49286;44.460;26.114;2023-04-22T00:22:06;100101.59;;;9.46;100.00
63190;BME280;49286;44.460;26.114;2023-04-22T00:24:32;100186.25;;;9.87;100.00
63190;BME280;49286;44.460;26.114;2023-04-22T00:26:57;100208.06;;;10.10;100.00
63190;BME280;49286;44.460;26.114;2023-04-22T00:29:26;100116.41;;;9.55;100.00
63190;BME280;49286;44.460;26.114;2023-04-22T00:31:51;100118.16;;;9.70;100.00
63190;BME280;49286;44.460;26.114;2023-04-22T00:34:16;100207.22;;;10.28;100.00
63190;BME280;49286;44.460;26.114;2023-04-22T00:36:42;100201.06;;;10.15;100.00
63190;BME280;49286;44.460;26.114;2023-04-22T00:39:08;100193.22;;;9.97;100.00
63190;BME280;49286;44.460;26.114;2023-04-22T00:41:34;99980.28;;;8.57;100.00
63190;BME280;49286;44.460;26.114;2023-04-22T00:43:59;100160.97;;;9.67;100.00
63190;BME280;49286;44.460;26.114;2023-04-22T00:46:25;100075.41;;;9.02;100.00
63190;BME280;49286;44.460;26.114;2023-04-22T00:48:51;100055.28;;;8.73;100.00
63190;BME280;49286;44.460;26.114;2023-04-22T00:51:17;100105.06;;;9.05;100.00
63190;BME280;49286;44.460;26.114;2023-04-22T00:53:42;100105.94;;;9.15;100.00
63190;BME280;49286;44.460;26.114;2023-04-22T00:56:08;100227.31;;;9.92;100.00
63190;BME280;49286;44.460;26.114;2023-04-22T00:58:33;100153.94;;;9.48;100.00
63190;BME280;49286;44.460;26.114;2023-04-22T01:00:59;100130.41;;;9.25;100.00
63190;BME280;49286;44.460;26.114;2023-04-22T01:03:25;100239.56;;;9.84;100.00
63190;BME280;49286;44.460;26.114;2023-04-22T01:05:52;100156.56;;;9.40;100.00
63190;BME280;49286;44.460;26.114;2023-04-22T01:08:18;100198.50;;;9.77;100.00
63190;BME280;49286;44.460;26.114;2023-04-22T01:10:43;100220.31;;;9.56;100.00
63190;BME280;49286;44.460;26.114;2023-04-22T01:13:09;100197.56;;;9.21;100.00
63190;BME280;49286;44.460;26.114;2023-04-22T01:15:34;100173.06;;;8.81;100.00
63190;BME280;49286;44.460;26.114;2023-04-22T01:18:00;100190.50;;;8.85;100.00
63190;BME280;49286;44.460;26.114;2023-04-22T01:20:28;100093.56;;;8.45;100.00
63190;BME280;49286;44.460;26.114;2023-04-22T01:22:54;100181.81;;;8.98;100.00
63190;BME280;49286;44.460;26.114;2023-04-22T01:25:22;100215.97;;;9.63;100.00
63190;BME280;49286;44.460;26.114;2023-04-22T01:27:48;100165.31;;;9.42;100.00
63190;BME280;49286;44.460;26.114;2023-04-22T01:30:14;100195.88;;;9.57;100.00
63190;BME280;49286;44.460;26.114;2023-04-22T01:32:40;100186.22;;;9.15;100.00
63190;BME280;49286;44.460;26.114;2023-04-22T01:35:07;100166.13;;;9.15;100.00
63190;BME280;49286;44.460;26.114;2023-04-22T01:37:33;100059.63;;;8.54;100.00
63190;BME280;49286;44.460;26.114;2023-04-22T01:39:59;100063.13;;;8.70;100.00
63190;BME280;49286;44.460;26.114;2023-04-22T01:42:25;100195.00;;;9.66;100.00
63190;BME280;49286;44.460;26.114;2023-04-22T01:44:51;100172.28;;;9.49;100.00
63190;BME280;49286;44.460;26.114;2023-04-22T01:47:16;100155.72;;;9.40;100.00
63190;BME280;49286;44.460;26.114;2023-04-22T01:49:42;100038.75;;;8.71;100.00
63190;BME280;49286;44.460;26.114;2023-04-22T01:52:07;100030.03;;;8.74;100.00
63190;BME280;49286;44.460;26.114;2023-04-22T01:54:33;100017.81;;;8.62;100.00
63190;BME280;49286;44.460;26.114;2023-04-22T01:56:59;100150.47;;;9.40;100.00
63190;BME280;49286;44.460;26.114;2023-04-22T01:59:25;100096.34;;;9.19;100.00
63190;BME280;49286;44.460;26.114;2023-04-22T02:01:50;100052.69;;;8.84;100.00
63190;BME280;49286;44.460;26.114;2023-04-22T02:04:16;100099.81;;;8.96;100.00
63190;BME280;49286;44.460;26.114;2023-04-22T02:06:41;99970.47;;;7.76;100.00
63190;BME280;49286;44.460;26.114;2023-04-22T02:09:06;99972.28;;;7.92;100.00
63190;BME280;49286;44.460;26.114;2023-04-22T02:11:32;99951.34;;;7.81;100.00
63190;BME280;49286;44.460;26.114;2023-04-22T02:13:57;100022.03;;;8.23;100.00
63190;BME280;49286;44.460;26.114;2023-04-22T02:16:23;100099.78;;;8.69;100.00
63190;BME280;49286;44.460;26.114;2023-04-22T02:18:48;100098.88;;;8.62;100.00
63190;BME280;49286;44.460;26.114;2023-04-22T02:21:14;99971.38;;;7.86;100.00
63190;BME280;49286;44.460;26.114;2023-04-22T02:23:40;100093.66;;;8.62;100.00
63190;BME280;49286;44.460;26.114;2023-04-22T02:26:06;99954.81;;;7.83;100.00
63190;BME280;49286;44.460;26.114;2023-04-22T02:28:32;100060.44;;;8.42;100.00
63190;BME280;49286;44.460;26.114;2023-04-22T02:30:58;100040.34;;;8.35;100.00
63190;BME280;49286;44.460;26.114;2023-04-22T02:33:24;99919.94;;;7.61;100.00
63190;BME280;49286;44.460;26.114;2023-04-22T02:35:49;99944.31;;;7.64;100.00
63190;BME280;49286;44.460;26.114;2023-04-22T02:38:15;99963.44;;;7.63;100.00
63190;BME280;49286;44.460;26.114;2023-04-22T02:40:40;99954.69;;;7.48;100.00
63190;BME280;49286;44.460;26.114;2023-04-22T02:43:06;99945.97;;;7.46;100.00
63190;BME280;49286;44.460;26.114;2023-04-22T02:45:31;99910.16;;;7.21;100.00
63190;BME280;49286;44.460;26.114;2023-04-22T02:47:57;99926.72;;;7.26;100.00
63190;BME280;49286;44.460;26.114;2023-04-22T02:50:22;99959.91;;;7.45;100.00
63190;BME280;49286;44.460;26.114;2023-04-22T02:52:48;100076.00;;;8.10;100.00
63190;BME280;49286;44.460;26.114;2023-04-22T02:55:13;99931.03;;;7.21;100.00
63190;BME280;49286;44.460;26.114;2023-04-22T02:57:39;100071.59;;;7.98;100.00
63190;BME280;49286;44.460;26.114;2023-04-22T03:00:07;99944.97;;;7.23;100.00
63190;BME280;49286;44.460;26.114;2023-04-22T03:02:32;100008.72;;;7.68;100.00
63190;BME280;49286;44.460;26.114;2023-04-22T03:04:58;99909.41;;;7.43;100.00
63190;BME280;49286;44.460;26.114;2023-04-22T03:07:25;100082.19;;;8.35;100.00
63190;BME280;49286;44.460;26.114;2023-04-22T03:09:51;100072.41;;;7.88;100.00
63190;BME280;49286;44.460;26.114;2023-04-22T03:12:17;100086.34;;;7.92;100.00
63190;BME280;49286;44.460;26.114;2023-04-22T03:14:43;99963.16;;;7.10;100.00
63190;BME280;49286;44.460;26.114;2023-04-22T03:17:08;100092.41;;;7.86;100.00
63190;BME280;49286;44.460;26.114;2023-04-22T03:19:34;100078.47;;;7.84;100.00
63190;BME280;49286;44.460;26.114;2023-04-22T03:21:59;100046.19;;;7.68;100.00
63190;BME280;49286;44.460;26.114;2023-04-22T03:24:25;100090.72;;;7.96;100.00
63190;BME280;49286;44.460;26.114;2023-04-22T03:26:50;100084.56;;;7.86;100.00
63190;BME280;49286;44.460;26.114;2023-04-22T03:29:16;99993.63;;;7.14;100.00
63190;BME280;49286;44.460;26.114;2023-04-22T03:31:41;100108.09;;;7.88;100.00
63190;BME280;49286;44.460;26.114;2023-04-22T03:34:07;100080.84;;;7.49;100.00
63190;BME280;49286;44.460;26.114;2023-04-22T03:36:32;100161.22;;;7.87;100.00
63190;BME280;49286;44.460;26.114;2023-04-22T03:38:58;100014.47;;;7.10;100.00
63190;BME280;49286;44.460;26.114;2023-04-22T03:41:23;100130.56;;;7.61;100.00
63190;BME280;49286;44.460;26.114;2023-04-22T03:43:51;100139.34;;;7.74;100.00
63190;BME280;49286;44.460;26.114;2023-04-22T03:46:16;100004.84;;;7.04;100.00
63190;BME280;49286;44.460;26.114;2023-04-22T03:48:42;100160.38;;;7.92;100.00
63190;BME280;49286;44.460;26.114;2023-04-22T03:51:07;99999.66;;;7.06;100.00
63190;BME280;49286;44.460;26.114;2023-04-22T03:53:33;100111.59;;;7.91;100.00
63190;BME280;49286;44.460;26.114;2023-04-22T03:55:58;100155.28;;;8.15;100.00
63190;BME280;49286;44.460;26.114;2023-04-22T03:58:23;99999.84;;;7.36;100.00
63190;BME280;49286;44.460;26.114;2023-04-22T04:00:49;100137.06;;;8.24;100.00
63190;BME280;49286;44.460;26.114;2023-04-22T04:03:16;100165.84;;;8.37;100.00
63190;BME280;49286;44.460;26.114;2023-04-22T04:05:42;99990.34;;;7.46;100.00
63190;BME280;49286;44.460;26.114;2023-04-22T04:08:08;100143.16;;;8.33;100.00
63190;BME280;49286;44.460;26.114;2023-04-22T04:10:35;100161.56;;;8.47;100.00
63190;BME280;49286;44.460;26.114;2023-04-22T04:13:01;100090.78;;;8.07;100.00
63190;BME280;49286;44.460;26.114;2023-04-22T04:15:26;100027.03;;;7.66;100.00
63190;BME280;49286;44.460;26.114;2023-04-22T04:17:52;99954.53;;;7.25;100.00
63190;BME280;49286;44.460;26.114;2023-04-22T04:20:17;100162.50;;;8.59;100.00
63190;BME280;49286;44.460;26.114;2023-04-22T04:22:43;100157.28;;;8.61;100.00
63190;BME280;49286;44.460;26.114;2023-04-22T04:25:08;100069.91;;;8.13;100.00
63190;BME280;49286;44.460;26.114;2023-04-22T04:27:35;100140.34;;;7.90;100.00
63190;BME280;49286;44.460;26.114;2023-04-22T04:30:00;100066.06;;;7.48;100.00
63190;BME280;49286;44.460;26.114;2023-04-22T04:32:28;100089.66;;;7.61;100.00
63190;BME280;49286;44.460;26.114;2023-04-22T04:34:53;100210.28;;;8.32;100.00
63190;BME280;49286;44.460;26.114;2023-04-22T04:37:19;100107.13;;;7.73;100.00
63190;BME280;49286;44.460;26.114;2023-04-22T04:39:46;100240.88;;;8.44;100.00
63190;BME280;49286;44.460;26.114;2023-04-22T04:42:12;100123.69;;;7.77;100.00
63190;BME280;49286;44.460;26.114;2023-04-22T04:44:39;100253.97;;;8.52;100.00
63190;BME280;49286;44.460;26.114;2023-04-22T04:47:05;100246.16;;;8.56;100.00
63190;BME280;49286;44.460;26.114;2023-04-22T04:49:31;100123.97;;;8.23;100.00
63190;BME280;49286;44.460;26.114;2023-04-22T04:51:56;100161.59;;;8.51;100.00
63190;BME280;49286;44.460;26.114;2023-04-22T04:54:22;100210.59;;;8.92;100.00
63190;BME280;49286;44.460;26.114;2023-04-22T04:56:47;100283.06;;;9.12;100.00
63190;BME280;49286;44.460;26.114;2023-04-22T04:59:13;100292.72;;;9.28;100.00
63190;BME280;49286;44.460;26.114;2023-04-22T05:01:38;100329.44;;;9.52;100.00
63190;BME280;49286;44.460;26.114;2023-04-22T05:04:04;100329.53;;;9.77;100.00
63190;BME280;49286;44.460;26.114;2023-04-22T05:06:30;100234.16;;;8.98;100.00
63190;BME280;49286;44.460;26.114;2023-04-22T05:08:58;100328.59;;;9.60;100.00
63190;BME280;49286;44.460;26.114;2023-04-22T05:11:24;100266.56;;;9.42;100.00
63190;BME280;49286;44.460;26.114;2023-04-22T05:13:49;100325.16;;;9.79;100.00
63190;BME280;49286;44.460;26.114;2023-04-22T05:16:14;100354.91;;;10.03;100.00
63190;BME280;49286;44.460;26.114;2023-04-22T05:18:40;100389.91;;;10.34;100.00
63190;BME280;49286;44.460;26.114;2023-04-22T05:21:06;100344.41;;;10.18;100.00
63190;BME280;49286;44.460;26.114;2023-04-22T05:23:31;100381.13;;;10.87;100.00
63190;BME280;49286;44.460;26.114;2023-04-22T05:25:57;100291.72;;;11.29;100.00
63190;BME280;49286;44.460;26.114;2023-04-22T05:28:22;100460.72;;;12.93;100.00
63190;BME280;49286;44.460;26.114;2023-04-22T05:30:48;100446.94;;;13.54;100.00
63190;BME280;49286;44.460;26.114;2023-04-22T05:33:14;100459.84;;;14.42;100.00
63190;BME280;49286;44.460;26.114;2023-04-22T05:35:39;100349.06;;;13.07;100.00
63190;BME280;49286;44.460;26.114;2023-04-22T05:38:05;100361.41;;;12.99;100.00
63190;BME280;49286;44.460;26.114;2023-04-22T05:40:30;100467.34;;;15.24;100.00
63190;BME280;49286;44.460;26.114;2023-04-22T05:42:56;100514.03;;;15.73;100.00
63190;BME280;49286;44.460;26.114;2023-04-22T05:45:21;100417.63;;;15.43;100.00
63190;BME280;49286;44.460;26.114;2023-04-22T05:47:47;100393.75;;;15.46;100.00
63190;BME280;49286;44.460;26.114;2023-04-22T05:50:13;100496.13;;;16.27;100.00
63190;BME280;49286;44.460;26.114;2023-04-22T05:52:38;100483.84;;;16.63;100.00
63190;BME280;49286;44.460;26.114;2023-04-22T05:55:04;100414.75;;;15.07;97.32
63190;BME280;49286;44.460;26.114;2023-04-22T05:57:30;100488.81;;;15.06;100.00
63190;BME280;49286;44.460;26.114;2023-04-22T05:59:58;100395.91;;;16.47;93.00
63190;BME280;49286;44.460;26.114;2023-04-22T06:02:24;100495.56;;;16.12;91.13
63190;BME280;49286;44.460;26.114;2023-04-22T06:04:50;100495.84;;;16.40;100.00
63190;BME280;49286;44.460;26.114;2023-04-22T06:07:15;100456.00;;;16.84;90.06
63190;BME280;49286;44.460;26.114;2023-04-22T06:09:41;100416.31;;;17.14;90.30
63190;BME280;49286;44.460;26.114;2023-04-22T06:12:06;100526.38;;;17.63;78.26
63190;BME280;49286;44.460;26.114;2023-04-22T06:14:32;100502.91;;;16.41;87.33
63190;BME280;49286;44.460;26.114;2023-04-22T06:16:57;100403.41;;;15.47;85.28
63190;BME280;49286;44.460;26.114;2023-04-22T06:19:23;100527.41;;;17.24;79.66
63190;BME280;49286;44.460;26.114;2023-04-22T06:21:48;100458.03;;;16.71;75.41
63190;BME280;49286;44.460;26.114;2023-04-22T06:24:14;100540.97;;;18.12;74.05
63190;BME280;49286;44.460;26.114;2023-04-22T06:26:39;100516.31;;;16.71;75.89
63190;BME280;49286;44.460;26.114;2023-04-22T06:29:05;100424.13;;;16.11;80.57
63190;BME280;49286;44.460;26.114;2023-04-22T06:31:31;100550.31;;;16.52;85.67
63190;BME280;49286;44.460;26.114;2023-04-22T06:33:56;100484.78;;;16.60;75.22
63190;BME280;49286;44.460;26.114;2023-04-22T06:36:22;100460.22;;;15.74;79.58
63190;BME280;49286;44.460;26.114;2023-04-22T06:38:48;100432.97;;;16.11;77.77
63190;BME280;49286;44.460;26.114;2023-04-22T06:41:13;100558.09;;;15.74;75.00
63190;BME280;49286;44.460;26.114;2023-04-22T06:43:39;100558.22;;;15.67;78.45
63190;BME280;49286;44.460;26.114;2023-04-22T06:46:05;100566.72;;;15.34;80.99
63190;BME280;49286;44.460;26.114;2023-04-22T06:48:30;100522.78;;;16.20;81.03
63190;BME280;49286;44.460;26.114;2023-04-22T06:50:56;100552.28;;;16.44;72.88
63190;BME280;49286;44.460;26.114;2023-04-22T06:53:21;100513.72;;;16.70;71.06
63190;BME280;49286;44.460;26.114;2023-04-22T06:55:47;100526.50;;;16.91;72.79
63190;BME280;49286;44.460;26.114;2023-04-22T06:58:12;100452.06;;;16.24;69.66
63190;BME280;49286;44.460;26.114;2023-04-22T07:00:38;100540.31;;;16.24;66.25
63190;BME280;49286;44.460;26.114;2023-04-22T07:03:03;100482.28;;;15.73;67.31
63190;BME280;49286;44.460;26.114;2023-04-22T07:05:29;100569.91;;;16.43;65.80
63190;BME280;49286;44.460;26.114;2023-04-22T07:07:56;100548.06;;;16.34;64.25
63190;BME280;49286;44.460;26.114;2023-04-22T07:10:21;100472.22;;;15.91;66.91
63190;BME280;49286;44.460;26.114;2023-04-22T07:12:47;100466.19;;;15.37;69.58
63190;BME280;49286;44.460;26.114;2023-04-22T07:15:12;100566.72;;;15.86;63.49
63190;BME280;49286;44.460;26.114;2023-04-22T07:17:38;100468.53;;;15.53;60.26
63190;BME280;49286;44.460;26.114;2023-04-22T07:20:04;100571.66;;;16.04;57.65
63190;BME280;49286;44.460;26.114;2023-04-22T07:22:30;100499.81;;;14.78;57.92
63190;BME280;49286;44.460;26.114;2023-04-22T07:24:55;100575.91;;;15.12;56.99
63190;BME280;49286;44.460;26.114;2023-04-22T07:27:21;100574.97;;;15.14;58.29
63190;BME280;49286;44.460;26.114;2023-04-22T07:29:46;100600.38;;;15.77;58.52
63190;BME280;49286;44.460;26.114;2023-04-22T07:32:12;100595.00;;;15.82;56.82
63190;BME280;49286;44.460;26.114;2023-04-22T07:34:37;100567.09;;;15.13;56.28
63190;BME280;49286;44.460;26.114;2023-04-22T07:37:02;100567.00;;;15.70;58.85
63190;BME280;49286;44.460;26.114;2023-04-22T07:39:29;100577.06;;;15.47;55.25
63190;BME280;49286;44.460;26.114;2023-04-22T07:41:54;100562.31;;;15.33;57.74
63190;BME280;49286;44.460;26.114;2023-04-22T07:44:21;100604.44;;;15.46;56.45
63190;BME280;49286;44.460;26.114;2023-04-22T07:46:47;100593.56;;;15.61;55.01
63190;BME280;49286;44.460;26.114;2023-04-22T07:49:13;100604.72;;;15.80;53.96
63190;BME280;49286;44.460;26.114;2023-04-22T07:51:39;100517.59;;;15.21;52.58
63190;BME280;49286;44.460;26.114;2023-04-22T07:54:05;100504.22;;;15.29;51.37
63190;BME280;49286;44.460;26.114;2023-04-22T07:56:31;100589.66;;;15.32;51.58
63190;BME280;49286;44.460;26.114;2023-04-22T07:58:56;100570.63;;;15.61;53.78
63190;BME280;49286;44.460;26.114;2023-04-22T08:01:22;100616.75;;;15.98;53.49
63190;BME280;49286;44.460;26.114;2023-04-22T08:03:48;100603.66;;;15.90;53.44
63190;BME280;49286;44.460;26.114;2023-04-22T08:06:14;100600.63;;;16.10;51.85
63190;BME280;49286;44.460;26.114;2023-04-22T08:08:39;100564.25;;;15.76;52.07
63190;BME280;49286;44.460;26.114;2023-04-22T08:11:06;100510.91;;;15.00;51.04
63190;BME280;49286;44.460;26.114;2023-04-22T08:13:32;100613.50;;;15.83;52.71
63190;BME280;49286;44.460;26.114;2023-04-22T08:15:59;100510.91;;;15.00;54.01
63190;BME280;49286;44.460;26.114;2023-04-22T08:18:26;100612.78;;;15.74;56.22
63190;BME280;49286;44.460;26.114;2023-04-22T08:20:52;100604.63;;;15.85;55.68
63190;BME280;49286;44.460;26.114;2023-04-22T08:23:18;100592.00;;;15.99;55.19
63190;BME280;49286;44.460;26.114;2023-04-22T08:25:43;100491.22;;;15.18;55.02
63190;BME280;49286;44.460;26.114;2023-04-22T08:28:08;100555.50;;;15.20;57.05
63190;BME280;49286;44.460;26.114;2023-04-22T08:30:35;100501.41;;;14.88;56.07
63190;BME280;49286;44.460;26.114;2023-04-22T08:33:00;100612.81;;;15.71;57.33
63190;BME280;49286;44.460;26.114;2023-04-22T08:35:26;100567.56;;;15.36;59.07
63190;BME280;49286;44.460;26.114;2023-04-22T08:37:52;100516.16;;;15.02;59.15
63190;BME280;49286;44.460;26.114;2023-04-22T08:40:17;100587.00;;;15.34;58.61
63190;BME280;49286;44.460;26.114;2023-04-22T08:42:43;100525.78;;;15.06;58.46
63190;BME280;49286;44.460;26.114;2023-04-22T08:45:09;100499.13;;;15.19;58.51
63190;BME280;49286;44.460;26.114;2023-04-22T08:47:36;100539.88;;;15.56;58.88
63190;BME280;49286;44.460;26.114;2023-04-22T08:50:03;100594.56;;;16.03;58.62
63190;BME280;49286;44.460;26.114;2023-04-22T08:52:30;100522.31;;;15.53;57.01
63190;BME280;49286;44.460;26.114;2023-04-22T08:54:58;100604.84;;;16.20;55.88
63190;BME280;49286;44.460;26.114;2023-04-22T08:57:24;100540.72;;;16.06;55.44
63190;BME280;49286;44.460;26.114;2023-04-22T08:59:51;100591.84;;;16.50;55.84
63190;BME280;49286;44.460;26.114;2023-04-22T09:02:20;100487.88;;;16.01;54.98
63190;BME280;49286;44.460;26.114;2023-04-22T09:04:48;100508.88;;;15.16;56.30
63190;BME280;49286;44.460;26.114;2023-04-22T09:07:27;100599.13;;;15.97;56.38
63190;BME280;49286;44.460;26.114;2023-04-22T09:09:56;100574.50;;;15.93;54.85
63190;BME280;49286;44.460;26.114;2023-04-22T09:12:24;100580.69;;;16.36;54.33
63190;BME280;49286;44.460;26.114;2023-04-22T09:14:50;100544.97;;;16.55;55.83
63190;BME280;49286;44.460;26.114;2023-04-22T09:17:17;100595.06;;;16.64;55.65
63190;BME280;49286;44.460;26.114;2023-04-22T09:19:56;100564.31;;;16.98;57.00
63190;BME280;49286;44.460;26.114;2023-04-22T09:22:22;100591.63;;;16.61;55.24
63190;BME280;49286;44.460;26.114;2023-04-22T09:24:48;100574.38;;;16.83;52.12
63190;BME280;49286;44.460;26.114;2023-04-22T09:27:22;100592.03;;;16.83;54.48
63190;BME280;49286;44.460;26.114;2023-04-22T09:29:49;100475.19;;;16.92;51.93
63190;BME280;49286;44.460;26.114;2023-04-22T09:32:16;100571.38;;;18.02;52.10
63190;BME280;49286;44.460;26.114;2023-04-22T09:34:53;100589.19;;;18.59;51.45
63190;BME280;49286;44.460;26.114;2023-04-22T09:37:19;100480.22;;;17.70;50.49
63190;BME280;49286;44.460;26.114;2023-04-22T09:39:48;100466.56;;;17.18;50.26
63190;BME280;49286;44.460;26.114;2023-04-22T09:42:15;100572.47;;;17.26;50.05
63190;BME280;49286;44.460;26.114;2023-04-22T09:44:40;100595.44;;;17.61;50.26
63190;BME280;49286;44.460;26.114;2023-04-22T09:47:06;100595.97;;;18.08;50.26
63190;BME280;49286;44.460;26.114;2023-04-22T09:49:36;100586.47;;;18.61;48.15
63190;BME280;49286;44.460;26.114;2023-04-22T09:52:06;100591.03;;;17.95;48.74
63190;BME280;49286;44.460;26.114;2023-04-22T10:07:26;100459.47;;;16.86;50.46
63190;BME280;49286;44.460;26.114;2023-04-22T10:09:56;100552.53;;;18.41;49.01
63190;BME280;49286;44.460;26.114;2023-04-22T10:12:22;100569.38;;;19.26;47.80
63190;BME280;49286;44.460;26.114;2023-04-22T10:14:48;100558.06;;;18.92;49.48
63190;BME280;49286;44.460;26.114;2023-04-22T10:17:14;100511.00;;;18.66;49.29
63190;BME280;49286;44.460;26.114;2023-04-22T10:19:41;100554.53;;;19.72;49.82
63190;BME280;49286;44.460;26.114;2023-04-22T10:22:09;100539.59;;;19.91;47.40
63190;BME280;49286;44.460;26.114;2023-04-22T10:24:35;100528.94;;;18.88;45.18
63190;BME280;49286;44.460;26.114;2023-04-22T10:27:03;100523.75;;;18.55;46.76
63190;BME280;49286;44.460;26.114;2023-04-22T10:29:40;100556.31;;;18.33;46.80
63190;BME280;49286;44.460;26.114;2023-04-22T10:34:41;100434.22;;;18.85;45.51
63190;BME280;49286;44.460;26.114;2023-04-22T10:37:09;100541.81;;;19.02;47.77
63190;BME280;49286;44.460;26.114;2023-04-22T10:39:39;100532.66;;;20.58;47.41
63190;BME280;49286;44.460;26.114;2023-04-22T10:42:10;100527.53;;;19.04;46.88
63190;BME280;49286;44.460;26.114;2023-04-22T10:47:31;100543.38;;;19.86;43.79
63190;BME280;49286;44.460;26.114;2023-04-22T10:50:25;100532.44;;;20.64;44.78
63190;BME280;49286;44.460;26.114;2023-04-22T10:52:53;100548.94;;;19.26;44.42
63190;BME280;49286;44.460;26.114;2023-04-22T10:55:19;100464.72;;;20.22;46.76
63190;BME280;49286;44.460;26.114;2023-04-22T10:57:47;100422.28;;;20.84;42.83
63190;BME280;49286;44.460;26.114;2023-04-22T11:00:30;100523.38;;;19.22;43.15
63190;BME280;49286;44.460;26.114;2023-04-22T11:05:25;100537.97;;;20.81;43.50
63190;BME280;49286;44.460;26.114;2023-04-22T11:07:57;100517.28;;;19.95;45.99
63190;BME280;49286;44.460;26.114;2023-04-22T11:10:50;100536.91;;;21.07;47.80
63190;BME280;49286;44.460;26.114;2023-04-22T11:13:20;100438.00;;;20.46;44.45
63190;BME280;49286;44.460;26.114;2023-04-22T11:15:48;100543.13;;;20.39;43.95
63190;BME280;49286;44.460;26.114;2023-04-22T11:18:23;100351.38;;;19.92;48.35
63190;BME280;49286;44.460;26.114;2023-04-22T11:20:50;100486.06;;;20.44;44.71
63190;BME280;49286;44.460;26.114;2023-04-22T11:23:22;100537.50;;;20.92;46.43
63190;BME280;49286;44.460;26.114;2023-04-22T11:25:53;100455.72;;;20.03;46.31
63190;BME280;49286;44.460;26.114;2023-04-22T11:28:19;100447.28;;;19.67;45.62
63190;BME280;49286;44.460;26.114;2023-04-22T11:30:47;100531.31;;;20.92;45.13
63190;BME280;49286;44.460;26.114;2023-04-22T11:33:14;100488.00;;;19.70;47.01
63190;BME280;49286;44.460;26.114;2023-04-22T11:35:39;100436.84;;;20.09;46.32
63190;BME280;49286;44.460;26.114;2023-04-22T11:38:07;100448.16;;;19.17;46.14
63190;BME280;49286;44.460;26.114;2023-04-22T11:40:41;100470.97;;;18.99;46.80
63190;BME280;49286;44.460;26.114;2023-04-22T11:43:08;100478.28;;;16.74;49.32
63190;BME280;49286;44.460;26.114;2023-04-22T11:45:36;100486.16;;;16.77;48.00
63190;BME280;49286;44.460;26.114;2023-04-22T11:48:03;100533.84;;;18.14;49.03
63190;BME280;49286;44.460;26.114;2023-04-22T11:50:34;100425.84;;;17.85;48.47
63190;BME280;49286;44.460;26.114;2023-04-22T11:53:03;100517.59;;;18.25;51.14
63190;BME280;49286;44.460;26.114;2023-04-22T11:55:31;100424.88;;;17.87;50.45
63190;BME280;49286;44.460;26.114;2023-04-22T11:57:59;100461.09;;;17.90;47.39
63190;BME280;49286;44.460;26.114;2023-04-22T12:00:30;100497.28;;;17.60;47.74
63190;BME280;49286;44.460;26.114;2023-04-22T12:03:23;100521.53;;;17.46;49.42
63190;BME280;49286;44.460;26.114;2023-04-22T12:05:59;100539.13;;;18.45;48.76
63190;BME280;49286;44.460;26.114;2023-04-22T12:08:33;100528.53;;;19.00;49.06
63190;BME280;49286;44.460;26.114;2023-04-22T12:11:05;100537.38;;;18.14;48.48
63190;BME280;49286;44.460;26.114;2023-04-22T12:13:40;100523.50;;;18.34;49.46
63190;BME280;49286;44.460;26.114;2023-04-22T12:18:46;100528.91;;;18.00;48.55
63190;BME280;49286;44.460;26.114;2023-04-22T12:21:14;100516.34;;;18.37;48.56
63190;BME280;49286;44.460;26.114;2023-04-22T12:23:49;100490.19;;;18.52;47.70
63190;BME280;49286;44.460;26.114;2023-04-22T12:26:16;100492.00;;;18.50;49.19
63190;BME280;49286;44.460;26.114;2023-04-22T12:28:42;100494.69;;;18.79;48.57
63190;BME280;49286;44.460;26.114;2023-04-22T12:31:09;100408.19;;;17.51;48.65
63190;BME280;49286;44.460;26.114;2023-04-22T12:33:36;100409.34;;;17.42;50.37
63190;BME280;49286;44.460;26.114;2023-04-22T12:36:02;100417.47;;;17.99;50.73
63190;BME280;49286;44.460;26.114;2023-04-22T12:38:28;100402.59;;;17.62;48.70
63190;BME280;49286;44.460;26.114;2023-04-22T12:40:54;100419.75;;;17.81;48.65
63190;BME280;49286;44.460;26.114;2023-04-22T12:43:20;100479.53;;;18.52;49.34
63190;BME280;49286;44.460;26.114;2023-04-22T12:45:45;100506.25;;;18.76;49.21
63190;BME280;49286;44.460;26.114;2023-04-22T12:48:11;100398.97;;;18.24;48.16
63190;BME280;49286;44.460;26.114;2023-04-22T12:50:37;100504.06;;;18.61;48.90
63190;BME280;49286;44.460;26.114;2023-04-22T12:53:02;100500.09;;;18.47;49.88
63190;BME280;49286;44.460;26.114;2023-04-22T12:55:28;100501.22;;;18.09;51.68
63190;BME280;49286;44.460;26.114;2023-04-22T12:57:54;100400.00;;;17.29;53.24
63190;BME280;49286;44.460;26.114;2023-04-22T13:00:21;100515.38;;;17.78;52.30